F\v Gure Gogoa — EAJC — position and weather

sailwx.info

Track history (hours):
 
Tides and Currents Weather Stations Pressure Air Temp Water Temp Dewpoint Dewpoint Depression Visibility Wind Speed Wind Dir Waves Ship Positions

F\v Gure Gogoa

Last reported at 2014-Nov-21 07:19 UTC. Time now 2014-Nov-22 01:52 UTC.
Position N 43°27' W 002°01'.

Length 37 m.

Type: Fishing. MMSI: 224128930.

Date/timePositionNaut miles runAvg speedWind from/ knotsBaromVisibWave heightAir tempDewpointWater temp
2014-Nov-21 07:19N 43°27' W 002°01'3 4.1
2014-Nov-21 06:30N 43°30' W 001°58'11 3.7
2014-Nov-21 03:33N 43°40' W 002°01'10 9.7
2014-Nov-21 02:33N 43°49' W 001°56'10 9.7
2014-Nov-21 01:33N 43°58' W 001°50'27 9.0
2014-Nov-20 22:34N 44°24' W 001°37'2 1.8
2014-Nov-20 21:33N 44°25' W 001°37'0 0.4
2014-Nov-20 20:33N 44°25' W 001°37'2 1.9
2014-Nov-20 19:32N 44°23' W 001°35'2 1.9
2014-Nov-20 18:24N 44°21' W 001°36'2 2.4
2014-Nov-20 17:33N 44°20' W 001°38'50 4.2
2014-Nov-20 05:33N 43°33' W 002°04'10 9.8
2014-Nov-20 04:33N 43°43' W 001°59'11 9.7
2014-Nov-20 03:27N 43°53' W 001°54'9 9.4
2014-Nov-20 02:29N 44°01' W 001°49'10 9.6
2014-Nov-20 01:28N 44°10' W 001°44'11 9.6
2014-Nov-20 00:20N 44°20' W 001°39'2 2.1
2014-Nov-19 23:33N 44°22' W 001°38'0 0.5
2014-Nov-19 22:33N 44°21' W 001°38'2 1.3
2014-Nov-19 21:20N 44°20' W 001°37'0 0.5
2014-Nov-19 20:33N 44°19' W 001°37'5 4.9
2014-Nov-19 19:32N 44°14' W 001°37'0 0.3
2014-Nov-19 18:33N 44°14' W 001°37'4 4.0
2014-Nov-19 17:27N 44°10' W 001°36'  
Track history (hours):
 
Tides and Currents Weather Stations Pressure Air Temp Water Temp Dewpoint Dewpoint Depression Visibility Wind Speed Wind Dir Waves Ship Positions

F\v Gure Gogoa

Last reported at 2014-Nov-21 07:19 UTC. Time now 2014-Nov-22 01:52 UTC.
Position N 43°27' W 002°01'.

Length 37 m.

Type: Fishing. MMSI: 224128930.

Date/timePositionNaut miles runAvg speedWind from/ knotsBaromVisibWave heightAir tempDewpointWater temp
2014-Nov-21 07:19N 43°27' W 002°01'3 4.1
2014-Nov-21 06:30N 43°30' W 001°58'11 3.7
2014-Nov-21 03:33N 43°40' W 002°01'10 9.7
2014-Nov-21 02:33N 43°49' W 001°56'10 9.7
2014-Nov-21 01:33N 43°58' W 001°50'27 9.0
2014-Nov-20 22:34N 44°24' W 001°37'2 1.8
2014-Nov-20 21:33N 44°25' W 001°37'0 0.4
2014-Nov-20 20:33N 44°25' W 001°37'2 1.9
2014-Nov-20 19:32N 44°23' W 001°35'2 1.9
2014-Nov-20 18:24N 44°21' W 001°36'2 2.4
2014-Nov-20 17:33N 44°20' W 001°38'50 4.2
2014-Nov-20 05:33N 43°33' W 002°04'10 9.8
2014-Nov-20 04:33N 43°43' W 001°59'11 9.7
2014-Nov-20 03:27N 43°53' W 001°54'9 9.4
2014-Nov-20 02:29N 44°01' W 001°49'10 9.6
2014-Nov-20 01:28N 44°10' W 001°44'11 9.6
2014-Nov-20 00:20N 44°20' W 001°39'2 2.1
2014-Nov-19 23:33N 44°22' W 001°38'0 0.5
2014-Nov-19 22:33N 44°21' W 001°38'2 1.3
2014-Nov-19 21:20N 44°20' W 001°37'0 0.5
2014-Nov-19 20:33N 44°19' W 001°37'5 4.9
2014-Nov-19 19:32N 44°14' W 001°37'0 0.3
2014-Nov-19 18:33N 44°14' W 001°37'4 4.0
2014-Nov-19 17:27N 44°10' W 001°36'  

Dump ship's entire track history